Time;durP1;ratioP1;P1;durP2;ratioP2;P2;SDS_P1;SDS_P2;PMS_P1;PMS_P2;Temp;Humidity;BMP_temperature;BMP_pressure;BME280_temperature;BME280_humidity;BME280_pressure;Samples;Min_cycle;Max_cycle;Signal;HPM_P1;HPM_P2
2023/07/02 00:01:38;;;;;;;8.15;3.58;;;20.00;71.70;;;;;;5074138;28;20033;-64
2023/07/02 00:04:03;;;;;;;7.82;3.70;;;20.00;71.80;;;;;;5069350;28;20033;-63
2023/07/02 00:06:32;;;;;;;9.68;4.18;;;20.00;71.80;;;;;;5073098;28;20049;-64
2023/07/02 00:08:58;;;;;;;9.18;4.05;;;20.00;71.90;;;;;;5039433;28;20059;-64
2023/07/02 00:11:23;;;;;;;10.23;3.88;;;20.00;72.00;;;;;;5054488;28;21561;-64
2023/07/02 00:13:49;;;;;;;9.48;3.90;;;20.00;72.10;;;;;;5071101;28;20449;-64
2023/07/02 00:16:15;;;;;;;13.02;3.95;;;20.00;72.10;;;;;;5073748;28;20107;-64
2023/07/02 00:18:41;;;;;;;10.98;4.60;;;19.90;72.10;;;;;;5072895;28;20333;-64
2023/07/02 00:21:06;;;;;;;13.15;5.10;;;20.00;72.20;;;;;;5055529;28;20413;-64
2023/07/02 00:23:32;;;;;;;14.93;4.60;;;19.90;72.20;;;;;;5069713;28;20120;-64
2023/07/02 00:25:58;;;;;;;12.05;5.18;;;19.90;72.20;;;;;;5070996;28;20028;-64
2023/07/02 00:28:24;;;;;;;13.02;6.00;;;19.90;72.20;;;;;;5071846;28;20020;-64
2023/07/02 00:30:50;;;;;;;11.07;5.07;;;19.90;72.20;;;;;;5055077;28;20434;-64
2023/07/02 00:33:16;;;;;;;10.82;5.30;;;19.90;72.20;;;;;;5055466;28;20100;-64
2023/07/02 00:35:42;;;;;;;12.07;5.68;;;19.90;72.20;;;;;;5054879;28;20365;-64
2023/07/02 00:38:07;;;;;;;13.73;5.72;;;19.90;72.20;;;;;;5073112;28;20086;-64
2023/07/02 00:40:33;;;;;;;15.70;6.30;;;19.90;72.20;;;;;;5074584;28;20042;-64
2023/07/02 00:42:59;;;;;;;13.38;5.90;;;19.90;72.20;;;;;;5072704;28;20025;-64
2023/07/02 00:45:27;;;;;;;12.55;5.97;;;19.90;72.30;;;;;;5073594;28;20020;-63
2023/07/02 00:47:55;;;;;;;11.48;6.22;;;19.90;72.30;;;;;;5072171;28;20051;-64
2023/07/02 00:50:24;;;;;;;12.77;6.10;;;19.90;72.50;;;;;;5072715;28;20482;-64
2023/07/02 00:52:50;;;;;;;14.57;6.30;;;19.80;72.40;;;;;;5073726;28;20028;-63
2023/07/02 00:55:17;;;;;;;10.45;5.18;;;19.80;72.30;;;;;;5056146;28;20083;-63
2023/07/02 00:57:46;;;;;;;15.02;5.80;;;19.70;72.30;;;;;;5055298;28;20059;-64
2023/07/02 01:00:13;;;;;;;12.93;5.90;;;19.70;73.00;;;;;;5073376;28;20036;-64
2023/07/02 01:02:43;;;;;;;14.10;6.28;;;19.60;72.10;;;;;;5073892;28;20029;-64
2023/07/02 01:05:14;;;;;;;11.80;5.55;;;19.60;72.00;;;;;;5071626;28;20040;-63
2023/07/02 01:07:41;;;;;;;15.38;6.03;;;19.50;71.70;;;;;;5052217;28;20030;-64
2023/07/02 01:10:07;;;;;;;15.07;6.05;;;19.40;71.60;;;;;;5072161;28;20025;-64
2023/07/02 01:12:36;;;;;;;12.63;6.30;;;19.30;71.60;;;;;;5074198;28;20028;-64
2023/07/02 01:15:04;;;;;;;14.23;6.97;;;19.30;71.40;;;;;;5043827;28;20033;-64
2023/07/02 01:17:41;;;;;;;15.13;6.10;;;19.20;71.30;;;;;;5054844;28;20377;-64
2023/07/02 01:20:11;;;;;;;12.00;5.47;;;19.20;71.30;;;;;;5073448;28;20031;-64
2023/07/02 01:22:38;;;;;;;11.13;5.22;;;19.20;71.30;;;;;;5074429;28;20037;-64
2023/07/02 01:25:05;;;;;;;12.38;5.68;;;19.10;71.30;;;;;;5072380;28;20360;-63
2023/07/02 01:27:32;;;;;;;12.52;6.03;;;19.10;71.50;;;;;;5072368;28;20341;-64
2023/07/02 01:29:57;;;;;;;11.68;4.70;;;19.10;71.50;;;;;;5054259;28;20052;-64
2023/07/02 01:32:23;;;;;;;11.90;5.68;;;19.00;71.60;;;;;;5056823;28;20047;-63
2023/07/02 01:34:53;;;;;;;13.05;5.13;;;19.00;71.80;;;;;;5053998;28;20402;-63
2023/07/02 01:37:18;;;;;;;10.88;5.47;;;19.00;71.90;;;;;;5073688;28;20039;-64
2023/07/02 01:39:45;;;;;;;14.98;5.50;;;19.00;72.00;;;;;;5034812;28;20021;-64
2023/07/02 01:42:16;;;;;;;11.18;5.40;;;18.90;72.10;;;;;;5048468;28;20025;-64
2023/07/02 01:44:46;;;;;;;13.05;5.82;;;18.90;72.30;;;;;;5053943;28;20033;-64
2023/07/02 01:47:12;;;;;;;10.85;4.93;;;18.90;72.30;;;;;;5039568;28;20465;-64
2023/07/02 01:49:38;;;;;;;11.85;5.40;;;18.90;72.40;;;;;;5072034;28;20055;-64
2023/07/02 01:52:04;;;;;;;12.55;5.35;;;18.90;72.40;;;;;;5054108;28;20040;-64
2023/07/02 01:54:31;;;;;;;13.13;5.50;;;18.90;72.40;;;;;;5072388;28;20067;-63
2023/07/02 01:56:58;;;;;;;13.98;6.60;;;18.90;72.50;;;;;;5073487;28;20415;-64
2023/07/02 01:59:24;;;;;;;12.32;6.07;;;18.80;72.50;;;;;;5047333;28;20097;-64
2023/07/02 02:01:50;;;;;;;13.55;5.72;;;18.80;72.50;;;;;;5055505;28;20366;-64
2023/07/02 02:04:16;;;;;;;11.43;5.60;;;18.80;72.40;;;;;;5073318;28;20032;-63
2023/07/02 02:06:42;;;;;;;14.40;7.45;;;18.80;72.30;;;;;;5054670;28;20032;-63
2023/07/02 02:09:11;;;;;;;12.85;6.00;;;18.80;72.30;;;;;;5055183;28;20434;-63
2023/07/02 02:11:44;;;;;;;13.63;6.63;;;18.70;72.10;;;;;;5040098;28;20021;-64
2023/07/02 02:14:09;;;;;;;14.57;6.47;;;18.70;72.00;;;;;;5055451;28;20034;-63
2023/07/02 02:16:35;;;;;;;14.05;6.72;;;18.70;72.00;;;;;;5058238;28;20036;-63
2023/07/02 02:19:03;;;;;;;14.45;6.68;;;18.60;71.90;;;;;;5076602;28;20044;-64
2023/07/02 02:21:29;;;;;;;14.75;6.50;;;18.60;71.80;;;;;;5076412;28;20396;-64
2023/07/02 02:23:55;;;;;;;13.13;6.95;;;18.60;71.80;;;;;;5057404;28;20465;-64
2023/07/02 02:26:22;;;;;;;12.57;6.13;;;18.50;71.80;;;;;;5076165;28;20477;-64
2023/07/02 02:28:48;;;;;;;13.00;6.53;;;18.50;71.80;;;;;;5037398;28;20020;-64
2023/07/02 02:31:15;;;;;;;13.32;6.13;;;18.50;72.50;;;;;;5058648;28;20035;-63
2023/07/02 02:33:41;;;;;;;11.60;5.90;;;18.50;71.90;;;;;;5042459;28;20043;-64
2023/07/02 02:36:07;;;;;;;15.25;6.28;;;18.40;72.00;;;;;;5058626;28;20021;-63
2023/07/02 02:38:34;;;;;;;13.30;6.75;;;18.40;72.10;;;;;;5057586;28;20031;-63
2023/07/02 02:41:02;;;;;;;14.50;6.75;;;18.40;72.20;;;;;;5057645;28;20123;-64
2023/07/02 02:43:31;;;;;;;13.70;5.50;;;18.30;72.70;;;;;;5058541;28;20533;-63
2023/07/02 02:45:57;;;;;;;16.13;6.07;;;18.30;72.20;;;;;;5058331;28;20021;-64
2023/07/02 02:48:23;;;;;;;13.63;7.18;;;18.30;72.20;;;;;;5056984;28;20021;-64
2023/07/02 02:50:49;;;;;;;11.80;6.25;;;18.30;72.20;;;;;;5058278;28;20028;-63
2023/07/02 02:53:15;;;;;;;13.32;5.95;;;18.30;72.30;;;;;;5076709;28;20032;-64
2023/07/02 02:55:41;;;;;;;14.60;6.05;;;18.20;72.20;;;;;;5073573;28;20063;-64
2023/07/02 02:58:07;;;;;;;12.90;5.93;;;18.30;72.30;;;;;;5057680;28;20465;-66
2023/07/02 03:00:36;;;;;;;13.00;5.88;;;18.20;72.30;;;;;;5075316;28;20455;-64
2023/07/02 03:03:02;;;;;;;12.85;6.00;;;18.20;72.40;;;;;;5059277;28;20020;-64
2023/07/02 03:05:29;;;;;;;15.60;6.75;;;18.20;72.40;;;;;;5058389;28;20283;-64
2023/07/02 03:07:54;;;;;;;13.15;6.90;;;18.20;72.50;;;;;;5041935;28;20364;-64
2023/07/02 03:10:20;;;;;;;16.20;6.72;;;18.20;72.50;;;;;;5074496;28;20024;-63
2023/07/02 03:12:47;;;;;;;13.25;6.07;;;18.20;72.60;;;;;;5058762;28;20112;-63
2023/07/02 03:15:13;;;;;;;12.95;6.20;;;18.20;72.70;;;;;;5058128;28;20040;-63
2023/07/02 03:17:39;;;;;;;15.23;6.80;;;18.20;72.70;;;;;;5041878;28;20055;-64
2023/07/02 03:20:07;;;;;;;13.18;6.18;;;18.20;72.80;;;;;;5055542;28;20029;-63
2023/07/02 03:22:33;;;;;;;14.45;6.05;;;18.20;72.90;;;;;;5066865;28;20043;-64
2023/07/02 03:25:00;;;;;;;15.57;6.43;;;18.20;72.90;;;;;;5058575;28;20424;-64
2023/07/02 03:27:25;;;;;;;13.27;6.40;;;18.20;73.00;;;;;;5075637;28;20029;-63
2023/07/02 03:29:52;;;;;;;15.07;6.47;;;18.20;73.00;;;;;;5057671;28;20038;-64
2023/07/02 03:32:18;;;;;;;12.07;6.30;;;18.20;73.00;;;;;;5047436;28;20028;-63
2023/07/02 03:34:43;;;;;;;12.43;6.13;;;18.20;73.00;;;;;;5058982;28;20090;-64
2023/07/02 03:37:09;;;;;;;13.13;6.38;;;18.20;73.10;;;;;;5075338;28;20032;-63
2023/07/02 03:39:35;;;;;;;14.25;6.45;;;18.20;73.10;;;;;;5072690;28;20055;-64
2023/07/02 03:42:01;;;;;;;16.55;6.65;;;18.20;73.00;;;;;;5055187;28;20024;-63
2023/07/02 03:44:26;;;;;;;11.55;5.82;;;18.20;73.00;;;;;;5054747;28;20021;-64
2023/07/02 03:46:52;;;;;;;14.18;7.20;;;18.20;72.90;;;;;;5068465;28;20044;-63
2023/07/02 03:49:18;;;;;;;13.88;6.57;;;18.20;72.90;;;;;;5076126;28;20024;-63
2023/07/02 03:51:43;;;;;;;12.80;6.38;;;18.20;72.90;;;;;;5055800;28;20351;-63
2023/07/02 03:54:09;;;;;;;13.98;6.35;;;18.20;72.80;;;;;;5057702;28;20052;-63
2023/07/02 03:56:35;;;;;;;12.18;6.93;;;18.20;72.80;;;;;;5056627;28;20032;-63
2023/07/02 03:59:01;;;;;;;13.80;6.03;;;18.20;72.80;;;;;;5075869;28;20025;-63
2023/07/02 04:01:26;;;;;;;13.00;6.60;;;18.20;72.80;;;;;;5055935;28;20013;-63
2023/07/02 04:03:54;;;;;;;13.27;6.07;;;18.20;72.70;;;;;;5075619;28;20329;-63
2023/07/02 04:06:20;;;;;;;14.43;6.20;;;18.20;72.60;;;;;;5074331;28;20038;-63
2023/07/02 04:08:45;;;;;;;13.48;6.38;;;18.20;72.50;;;;;;5073586;28;20028;-63
2023/07/02 04:11:12;;;;;;;11.10;5.70;;;18.20;72.50;;;;;;5072311;28;20449;-63
2023/07/02 04:13:39;;;;;;;12.05;6.20;;;18.20;72.40;;;;;;5068420;28;20024;-64
2023/07/02 04:16:05;;;;;;;12.80;6.05;;;18.20;72.30;;;;;;5073189;28;20086;-64
2023/07/02 04:18:32;;;;;;;14.85;6.03;;;18.20;72.20;;;;;;5056908;28;20024;-63
2023/07/02 04:20:58;;;;;;;15.88;6.45;;;18.10;72.10;;;;;;5074183;28;20040;-63
2023/07/02 04:23:24;;;;;;;17.50;7.57;;;18.20;72.10;;;;;;5040122;28;20016;-63
2023/07/02 04:25:50;;;;;;;12.75;6.15;;;18.20;72.00;;;;;;5057662;28;20341;-63
2023/07/02 04:28:17;;;;;;;13.07;6.38;;;18.20;72.00;;;;;;5074028;28;20074;-64
2023/07/02 04:30:43;;;;;;;12.95;6.05;;;18.20;71.80;;;;;;5075227;28;20025;-63
2023/07/02 04:33:09;;;;;;;13.32;6.45;;;18.20;71.70;;;;;;5071960;28;20372;-63
2023/07/02 04:35:34;;;;;;;14.10;6.28;;;18.20;71.60;;;;;;5074648;28;20025;-64
2023/07/02 04:38:01;;;;;;;12.88;6.25;;;18.30;71.70;;;;;;5071478;28;20032;-63
2023/07/02 04:40:27;;;;;;;12.13;6.18;;;18.20;71.60;;;;;;5070989;28;20033;-63
2023/07/02 04:42:57;;;;;;;11.38;5.90;;;18.30;71.50;;;;;;5053620;28;20085;-63
2023/07/02 04:45:24;;;;;;;12.85;6.45;;;18.30;71.50;;;;;;5056552;28;20039;-63
2023/07/02 04:47:50;;;;;;;14.18;6.25;;;18.30;71.40;;;;;;5073472;28;20112;-64
2023/07/02 04:50:17;;;;;;;14.77;6.30;;;18.30;71.30;;;;;;5056679;28;20074;-64
2023/07/02 04:52:43;;;;;;;16.85;6.35;;;18.40;71.20;;;;;;5063398;28;20473;-63
2023/07/02 04:55:09;;;;;;;12.65;6.20;;;18.40;71.00;;;;;;5039466;28;20052;-63
2023/07/02 04:57:35;;;;;;;13.00;6.57;;;18.30;70.80;;;;;;5070619;28;20025;-63
2023/07/02 05:00:03;;;;;;;16.60;6.20;;;18.40;70.70;;;;;;5072735;28;20093;-63
2023/07/02 05:02:29;;;;;;;14.60;6.45;;;18.40;70.60;;;;;;5070059;28;20024;-63
2023/07/02 05:04:55;;;;;;;12.40;6.32;;;18.50;70.50;;;;;;5038755;28;20027;-63
2023/07/02 05:07:21;;;;;;;12.75;5.90;;;18.50;70.20;;;;;;5074328;28;20355;-63
2023/07/02 05:09:48;;;;;;;13.32;6.25;;;18.50;70.10;;;;;;5074421;28;20046;-64
2023/07/02 05:12:14;;;;;;;15.00;6.47;;;18.60;69.90;;;;;;5056804;28;20020;-64
2023/07/02 05:14:39;;;;;;;17.27;7.10;;;18.60;69.70;;;;;;5055491;28;20028;-64
2023/07/02 05:17:05;;;;;;;13.32;6.07;;;18.60;69.40;;;;;;5074378;28;20028;-64
2023/07/02 05:19:31;;;;;;;16.10;6.35;;;18.70;69.20;;;;;;5056762;28;20449;-64
2023/07/02 05:21:57;;;;;;;14.15;6.55;;;18.70;69.00;;;;;;5056867;28;20352;-64
2023/07/02 05:24:22;;;;;;;14.45;6.15;;;18.80;68.80;;;;;;5039060;28;20025;-63
2023/07/02 05:26:50;;;;;;;15.23;6.50;;;18.90;68.50;;;;;;5073815;28;20043;-64
2023/07/02 05:29:16;;;;;;;14.82;7.10;;;19.00;68.10;;;;;;5074768;28;20067;-64
2023/07/02 05:31:42;;;;;;;16.25;6.78;;;19.10;67.80;;;;;;5056228;28;20075;-64
2023/07/02 05:34:08;;;;;;;17.50;7.65;;;19.20;67.50;;;;;;5073735;28;20048;-64
2023/07/02 05:36:34;;;;;;;17.38;7.45;;;19.20;67.30;;;;;;5056520;28;20139;-64
2023/07/02 05:39:00;;;;;;;15.30;6.63;;;19.20;67.20;;;;;;5056455;28;20091;-64
2023/07/02 05:41:30;;;;;;;14.13;7.45;;;19.30;67.10;;;;;;5032000;28;20066;-64
2023/07/02 05:43:57;;;;;;;17.73;7.22;;;19.30;67.10;;;;;;5052104;28;20020;-64
2023/07/02 05:46:23;;;;;;;19.77;7.30;;;19.30;66.90;;;;;;5071059;28;20043;-64
2023/07/02 05:48:49;;;;;;;17.42;6.85;;;19.30;66.90;;;;;;5074682;28;20036;-64
2023/07/02 05:51:20;;;;;;;16.27;6.82;;;19.20;66.80;;;;;;5074753;28;20021;-63
2023/07/02 05:53:46;;;;;;;18.95;7.50;;;19.20;66.40;;;;;;5072491;28;20041;-63
2023/07/02 05:56:11;;;;;;;20.50;6.93;;;19.30;66.20;;;;;;5057924;28;20040;-64
2023/07/02 05:58:37;;;;;;;17.27;7.35;;;19.40;65.90;;;;;;5043647;28;20412;-63
2023/07/02 06:01:05;;;;;;;18.00;7.15;;;19.40;65.70;;;;;;5054941;28;20020;-63
2023/07/02 06:03:30;;;;;;;18.40;7.45;;;19.50;65.50;;;;;;5076454;28;20032;-63
2023/07/02 06:05:56;;;;;;;17.63;7.20;;;19.60;65.20;;;;;;5075681;28;20028;-64
2023/07/02 06:08:22;;;;;;;14.15;6.50;;;19.60;64.90;;;;;;5075926;28;20024;-64
2023/07/02 06:10:48;;;;;;;17.52;7.53;;;19.60;64.70;;;;;;5075940;28;20421;-64
2023/07/02 06:13:14;;;;;;;16.02;6.60;;;19.60;64.60;;;;;;5075109;28;20039;-65
2023/07/02 06:15:40;;;;;;;16.00;6.78;;;19.60;64.40;;;;;;5055694;28;21293;-63
2023/07/02 06:18:06;;;;;;;13.90;6.93;;;19.70;64.30;;;;;;5074905;28;20020;-64
2023/07/02 06:20:32;;;;;;;13.57;6.55;;;19.70;64.20;;;;;;5074410;28;20445;-64
2023/07/02 06:22:57;;;;;;;17.33;6.28;;;19.80;63.80;;;;;;5077212;28;20020;-64
2023/07/02 06:25:23;;;;;;;17.38;6.57;;;19.80;63.60;;;;;;5076331;28;20028;-64
2023/07/02 06:27:49;;;;;;;16.48;6.72;;;19.80;63.40;;;;;;5070134;28;20032;-64
2023/07/02 06:30:15;;;;;;;15.20;6.68;;;20.00;63.30;;;;;;5076043;28;20025;-65
2023/07/02 06:32:41;;;;;;;16.63;6.68;;;20.10;63.10;;;;;;5071763;28;20383;-64
2023/07/02 06:35:07;;;;;;;15.15;6.00;;;20.20;62.90;;;;;;5057662;28;20039;-63
2023/07/02 06:37:33;;;;;;;17.13;7.10;;;20.30;62.70;;;;;;5073448;28;20101;-63
2023/07/02 06:43:30;;;;;;;15.00;5.72;;;20.40;62.00;;;;;;5069497;28;20334;-64
2023/07/02 06:45:55;;;;;;;12.55;6.35;;;20.40;62.00;;;;;;5076633;28;20016;-64
2023/07/02 06:48:21;;;;;;;18.15;7.05;;;20.40;61.60;;;;;;5075941;28;20074;-64
2023/07/02 06:50:47;;;;;;;16.60;6.80;;;20.30;61.30;;;;;;5075770;28;20037;-63
2023/07/02 06:53:13;;;;;;;17.40;6.72;;;20.30;61.30;;;;;;5059008;28;20039;-63
2023/07/02 06:55:39;;;;;;;10.75;5.55;;;20.30;61.30;;;;;;5076519;28;20049;-64
2023/07/02 06:58:06;;;;;;;16.77;6.10;;;20.30;61.20;;;;;;5074646;28;20024;-64
2023/07/02 07:00:35;;;;;;;12.98;5.85;;;20.30;61.00;;;;;;5058315;28;20041;-63
2023/07/02 07:03:02;;;;;;;13.30;6.20;;;20.40;60.90;;;;;;5059286;28;20330;-64
2023/07/02 07:05:32;;;;;;;14.43;5.85;;;20.30;60.60;;;;;;5076289;28;20031;-64
2023/07/02 07:07:59;;;;;;;13.95;6.40;;;20.30;60.50;;;;;;5074693;28;20020;-64
2023/07/02 07:10:24;;;;;;;14.30;6.45;;;20.30;60.30;;;;;;5058326;28;20410;-63
2023/07/02 07:12:50;;;;;;;16.17;6.18;;;20.40;60.00;;;;;;5074397;28;20056;-63
2023/07/02 07:15:16;;;;;;;11.38;6.05;;;20.40;59.80;;;;;;5075304;28;20021;-64
2023/07/02 07:17:42;;;;;;;13.02;5.32;;;20.40;59.60;;;;;;5058579;28;20449;-63
2023/07/02 07:20:08;;;;;;;14.43;6.32;;;20.40;59.40;;;;;;5057278;28;20020;-64
2023/07/02 07:22:34;;;;;;;12.82;5.65;;;20.40;59.20;;;;;;5075537;28;20048;-64
2023/07/02 07:25:00;;;;;;;12.80;6.35;;;20.30;59.10;;;;;;5057974;28;20016;-64
2023/07/02 07:27:26;;;;;;;11.40;5.30;;;20.30;59.10;;;;;;5058102;28;20037;-64
2023/07/02 07:29:51;;;;;;;12.07;5.30;;;20.30;58.80;;;;;;5057174;28;20063;-63
2023/07/02 07:32:17;;;;;;;13.57;5.45;;;20.40;58.50;;;;;;5057619;28;20052;-63
2023/07/02 07:34:43;;;;;;;10.90;5.40;;;20.60;58.20;;;;;;5075396;28;20433;-63
2023/07/02 07:37:09;;;;;;;14.50;6.00;;;20.80;58.00;;;;;;5037432;28;20422;-63
2023/07/02 07:39:36;;;;;;;15.30;6.63;;;20.90;57.80;;;;;;5072190;28;20070;-63
2023/07/02 07:42:02;;;;;;;13.45;5.38;;;21.20;57.40;;;;;;5057905;28;20104;-63
2023/07/02 07:44:28;;;;;;;15.43;5.53;;;21.40;57.00;;;;;;5058720;28;20074;-63
2023/07/02 07:46:57;;;;;;;12.15;5.30;;;21.50;56.80;;;;;;5055189;28;20025;-63
2023/07/02 07:49:23;;;;;;;12.73;5.18;;;21.50;56.80;;;;;;5071440;28;20078;-63
2023/07/02 07:51:49;;;;;;;14.60;6.20;;;21.70;56.60;;;;;;5044964;28;20033;-63
2023/07/02 07:54:14;;;;;;;10.15;5.47;;;21.90;56.10;;;;;;5061288;28;20438;-63
2023/07/02 07:56:40;;;;;;;12.27;5.70;;;22.00;55.80;;;;;;5053248;28;20415;-63
2023/07/02 07:59:06;;;;;;;13.20;5.35;;;22.20;55.30;;;;;;5055715;28;20028;-63
2023/07/02 08:01:32;;;;;;;13.90;5.95;;;22.10;55.20;;;;;;5051510;28;20113;-63
2023/07/02 08:03:57;;;;;;;12.90;5.57;;;21.90;55.50;;;;;;5045994;28;20040;-63
2023/07/02 08:06:23;;;;;;;10.30;4.78;;;21.70;55.80;;;;;;5074374;28;20033;-63
2023/07/02 08:08:49;;;;;;;12.68;5.43;;;21.60;56.10;;;;;;5058045;28;20036;-63
2023/07/02 08:11:15;;;;;;;17.60;6.32;;;21.60;56.10;;;;;;5030301;28;20546;-63
2023/07/02 08:13:40;;;;;;;13.05;5.80;;;21.80;55.70;;;;;;5054433;28;20477;-63
2023/07/02 08:16:06;;;;;;;12.95;5.70;;;22.10;55.20;;;;;;5039054;28;20052;-64
2023/07/02 08:18:32;;;;;;;12.23;5.57;;;22.20;55.00;;;;;;5074299;28;20043;-63
2023/07/02 08:20:57;;;;;;;13.60;6.05;;;22.50;54.80;;;;;;5074913;28;20032;-63
2023/07/02 08:23:23;;;;;;;10.23;4.60;;;22.60;54.10;;;;;;5075122;28;20024;-64
2023/07/02 08:25:49;;;;;;;14.68;5.65;;;22.90;53.70;;;;;;5055337;28;20041;-63
2023/07/02 08:28:15;;;;;;;11.73;5.13;;;22.70;53.20;;;;;;5050116;28;20169;-63
2023/07/02 08:30:41;;;;;;;14.23;5.00;;;22.70;53.20;;;;;;5055815;28;20471;-63
2023/07/02 08:33:06;;;;;;;11.93;5.22;;;22.60;52.60;;;;;;5041304;28;20433;-63
2023/07/02 08:35:32;;;;;;;12.77;5.05;;;22.70;52.50;;;;;;5039705;28;20054;-63
2023/07/02 08:37:58;;;;;;;11.13;5.18;;;22.70;52.20;;;;;;5056318;28;20036;-63
2023/07/02 08:40:24;;;;;;;10.30;4.72;;;22.60;52.10;;;;;;5056431;28;20029;-65
2023/07/02 08:42:50;;;;;;;10.85;4.70;;;22.40;52.10;;;;;;5057124;28;20127;-64
2023/07/02 08:45:16;;;;;;;10.45;5.05;;;22.10;52.50;;;;;;5054735;28;20442;-63
2023/07/02 08:47:45;;;;;;;12.82;5.95;;;21.90;52.60;;;;;;5038522;28;20035;-63
2023/07/02 08:50:12;;;;;;;10.85;4.97;;;21.60;52.90;;;;;;5074442;28;20094;-63
2023/07/02 08:52:38;;;;;;;13.73;5.50;;;21.50;52.90;;;;;;5071808;28;20048;-63
2023/07/02 08:55:05;;;;;;;11.02;5.05;;;21.40;53.20;;;;;;5068986;28;20056;-64
2023/07/02 08:57:31;;;;;;;12.60;5.03;;;21.60;53.00;;;;;;5056479;28;20171;-64
2023/07/02 08:59:57;;;;;;;14.48;5.20;;;21.60;52.80;;;;;;5071439;28;20025;-64
2023/07/02 09:02:33;;;;;;;10.73;5.10;;;21.60;52.90;;;;;;5074561;28;20097;-64
2023/07/02 09:05:03;;;;;;;11.07;4.88;;;21.80;53.30;;;;;;5056332;28;20043;-64
2023/07/02 09:07:28;;;;;;;10.63;4.63;;;22.20;52.30;;;;;;5073924;28;20426;-64
2023/07/02 09:09:54;;;;;;;9.95;4.20;;;22.50;51.50;;;;;;5072812;28;20071;-64
2023/07/02 09:12:28;;;;;;;10.80;4.50;;;22.40;51.10;;;;;;5056952;28;20064;-64
2023/07/02 09:14:56;;;;;;;9.43;4.88;;;22.30;50.90;;;;;;5050884;28;20165;-64
2023/07/02 09:17:26;;;;;;;10.80;4.50;;;22.00;51.80;;;;;;5074694;28;20127;-64
2023/07/02 09:19:51;;;;;;;10.60;4.95;;;21.80;51.30;;;;;;5054714;28;20027;-64
2023/07/02 09:22:17;;;;;;;11.75;5.00;;;21.70;51.50;;;;;;5055372;28;20017;-64
2023/07/02 09:24:53;;;;;;;11.00;4.30;;;22.00;51.20;;;;;;5055512;28;20422;-64
2023/07/02 09:27:18;;;;;;;12.00;4.53;;;22.50;50.70;;;;;;5055986;28;20032;-64
2023/07/02 09:29:51;;;;;;;9.75;4.00;;;22.90;50.20;;;;;;5054941;28;20369;-64
2023/07/02 09:32:25;;;;;;;10.80;4.72;;;22.90;49.50;;;;;;5074424;28;20029;-63
2023/07/02 09:34:51;;;;;;;10.43;4.60;;;22.80;49.40;;;;;;5073430;28;20029;-64
2023/07/02 09:37:17;;;;;;;9.23;4.07;;;22.90;49.00;;;;;;5056548;28;20432;-64
2023/07/02 09:39:43;;;;;;;9.70;3.90;;;22.80;48.40;;;;;;5071533;28;20107;-64
2023/07/02 09:42:10;;;;;;;10.18;4.75;;;22.60;48.00;;;;;;5073123;28;20032;-65
2023/07/02 09:44:36;;;;;;;11.23;4.55;;;22.60;48.00;;;;;;5055765;28;20408;-65
2023/07/02 09:47:07;;;;;;;11.00;4.22;;;22.80;47.60;;;;;;5056563;28;20024;-64
2023/07/02 09:49:41;;;;;;;9.38;4.32;;;23.00;46.80;;;;;;5037118;28;20214;-65
2023/07/02 09:52:09;;;;;;;8.32;3.45;;;23.00;46.50;;;;;;5054010;28;20044;-64
2023/07/02 09:54:36;;;;;;;10.20;4.45;;;23.20;46.20;;;;;;5055085;28;20056;-65
2023/07/02 09:57:03;;;;;;;8.80;3.60;;;23.50;45.70;;;;;;5073930;28;20036;-65
2023/07/02 09:59:29;;;;;;;9.93;3.60;;;23.80;44.90;;;;;;5037583;28;20580;-65
2023/07/02 10:01:56;;;;;;;10.35;3.85;;;24.10;44.20;;;;;;5055155;28;20072;-64
2023/07/02 10:04:25;;;;;;;9.88;4.38;;;24.10;44.20;;;;;;5038128;28;20052;-65
2023/07/02 10:06:56;;;;;;;10.70;3.95;;;24.00;44.20;;;;;;5054112;28;20024;-64
2023/07/02 10:09:37;;;;;;;11.82;4.10;;;24.00;44.10;;;;;;5047325;28;20025;-64
2023/07/02 10:12:16;;;;;;;9.70;4.22;;;23.70;43.90;;;;;;5049754;28;20028;-64
2023/07/02 10:14:43;;;;;;;8.70;3.88;;;23.70;44.40;;;;;;5073489;28;20429;-64
2023/07/02 10:17:09;;;;;;;8.23;3.50;;;24.00;44.30;;;;;;5054904;28;20082;-64
2023/07/02 10:19:34;;;;;;;9.18;3.75;;;24.20;44.00;;;;;;5073569;28;20024;-64
2023/07/02 10:22:02;;;;;;;12.98;3.75;;;24.50;43.60;;;;;;5072150;28;20032;-64
2023/07/02 10:24:28;;;;;;;9.52;3.70;;;24.70;43.00;;;;;;5052627;28;20146;-65
2023/07/02 10:27:03;;;;;;;8.57;3.80;;;24.80;42.90;;;;;;5046034;28;20119;-65
2023/07/02 10:29:29;;;;;;;9.77;3.72;;;25.00;42.40;;;;;;5054128;28;20760;-64
2023/07/02 10:31:56;;;;;;;8.40;3.78;;;25.20;41.90;;;;;;5056288;28;20094;-65
2023/07/02 10:34:32;;;;;;;8.38;3.08;;;25.30;41.60;;;;;;5054849;28;20024;-65
2023/07/02 10:37:00;;;;;;;6.55;3.03;;;25.30;41.30;;;;;;5054173;28;20116;-65
2023/07/02 10:39:26;;;;;;;8.13;3.83;;;25.30;41.50;;;;;;5069870;28;20165;-65
2023/07/02 10:41:52;;;;;;;7.30;3.53;;;25.10;41.40;;;;;;5050554;28;20111;-65
2023/07/02 10:44:18;;;;;;;9.68;3.60;;;24.70;41.60;;;;;;5059084;28;20410;-65
2023/07/02 10:46:47;;;;;;;8.52;4.30;;;24.50;41.70;;;;;;5075364;28;20040;-64
2023/07/02 10:49:17;;;;;;;8.77;3.60;;;24.40;41.80;;;;;;5058779;28;20025;-64
2023/07/02 10:51:43;;;;;;;9.93;3.55;;;24.30;42.00;;;;;;5076327;28;20109;-65
2023/07/02 10:54:09;;;;;;;8.40;4.15;;;24.30;41.80;;;;;;5074955;28;20040;-64
2023/07/02 10:56:35;;;;;;;9.73;3.95;;;24.20;41.80;;;;;;5076371;28;20041;-64
2023/07/02 10:59:01;;;;;;;7.07;3.60;;;24.00;42.00;;;;;;5073801;28;20021;-64
2023/07/02 11:01:29;;;;;;;8.45;4.00;;;23.80;42.20;;;;;;5042367;28;20468;-64
2023/07/02 11:04:04;;;;;;;7.90;3.45;;;23.60;42.30;;;;;;5075736;28;20559;-64
2023/07/02 11:06:34;;;;;;;8.60;3.17;;;23.60;42.10;;;;;;5025988;28;20029;-64
2023/07/02 11:09:01;;;;;;;8.30;3.70;;;23.70;42.40;;;;;;5053395;28;20040;-64
2023/07/02 11:11:27;;;;;;;9.30;4.03;;;23.90;42.10;;;;;;5048164;28;20032;-65
2023/07/02 11:13:54;;;;;;;9.10;4.55;;;24.00;42.00;;;;;;5074609;28;20090;-64
2023/07/02 11:16:26;;;;;;;8.88;3.60;;;24.10;41.90;;;;;;5054068;28;20111;-64
2023/07/02 11:19:10;;;;;;;9.82;3.80;;;24.00;41.80;;;;;;5052332;28;20042;-64
2023/07/02 11:21:37;;;;;;;9.82;3.78;;;23.90;41.80;;;;;;5045425;28;20027;-64
2023/07/02 11:24:10;;;;;;;9.38;3.80;;;23.90;41.80;;;;;;5040325;28;20142;-65
2023/07/02 11:26:40;;;;;;;8.48;3.40;;;24.20;41.80;;;;;;5039617;28;20060;-64
2023/07/02 11:29:18;;;;;;;8.57;3.40;;;24.30;41.40;;;;;;5055652;28;20032;-64
2023/07/02 11:31:44;;;;;;;8.95;3.05;;;24.50;41.20;;;;;;5037877;28;20038;-65
2023/07/02 11:34:21;;;;;;;8.65;3.50;;;24.50;41.00;;;;;;5056087;28;20447;-64
2023/07/02 11:36:47;;;;;;;6.50;2.90;;;24.50;40.80;;;;;;5073742;28;20021;-65
2023/07/02 11:39:15;;;;;;;7.18;2.80;;;24.50;41.00;;;;;;5074121;28;20020;-64
2023/07/02 11:41:42;;;;;;;6.65;3.13;;;24.50;41.10;;;;;;5070766;28;20040;-64
2023/07/02 11:44:09;;;;;;;8.00;2.97;;;24.50;41.10;;;;;;5073420;28;20023;-64
2023/07/02 11:46:35;;;;;;;7.55;3.17;;;24.30;41.00;;;;;;5038516;28;20166;-64
2023/07/02 11:49:02;;;;;;;7.32;3.15;;;24.10;41.10;;;;;;5052627;28;20024;-64
2023/07/02 11:51:28;;;;;;;7.82;3.13;;;24.00;41.20;;;;;;5064638;28;20108;-64
2023/07/02 11:53:53;;;;;;;8.27;3.42;;;23.90;41.50;;;;;;5052506;28;20024;-64
2023/07/02 11:56:19;;;;;;;8.00;3.30;;;23.80;41.60;;;;;;5072917;28;20346;-64
2023/07/02 11:58:45;;;;;;;7.78;3.70;;;23.70;41.50;;;;;;5053674;28;20128;-64
2023/07/02 12:01:11;;;;;;;8.73;3.08;;;23.70;41.30;;;;;;5054831;28;20074;-64
2023/07/02 12:03:36;;;;;;;6.60;3.28;;;23.80;41.10;;;;;;5053134;28;20023;-63
2023/07/02 12:06:02;;;;;;;7.93;3.20;;;23.90;40.90;;;;;;5055155;28;20350;-63
2023/07/02 12:08:28;;;;;;;7.65;3.53;;;24.00;40.80;;;;;;5072831;28;20031;-64
2023/07/02 12:10:54;;;;;;;5.88;2.75;;;24.20;40.90;;;;;;5037243;28;20059;-64
2023/07/02 12:13:22;;;;;;;7.47;3.20;;;24.30;40.60;;;;;;5053630;28;20031;-62
2023/07/02 12:15:51;;;;;;;6.57;2.92;;;24.20;40.30;;;;;;5073221;28;20434;-63
2023/07/02 12:18:16;;;;;;;6.55;3.10;;;24.10;40.40;;;;;;5051541;28;20354;-62
2023/07/02 12:20:42;;;;;;;8.55;3.28;;;24.00;40.40;;;;;;5067321;28;20032;-63
2023/07/02 12:23:09;;;;;;;7.75;3.60;;;23.90;41.10;;;;;;5073338;28;20013;-62
2023/07/02 12:25:35;;;;;;;7.28;2.92;;;23.80;40.60;;;;;;5039232;28;20024;-62
2023/07/02 12:28:02;;;;;;;7.28;3.22;;;23.70;40.70;;;;;;5070020;28;20128;-64
2023/07/02 12:30:28;;;;;;;7.65;3.25;;;23.80;40.50;;;;;;5056687;28;20049;-64
2023/07/02 12:32:54;;;;;;;7.25;3.10;;;23.70;40.40;;;;;;5040109;28;20144;-65
2023/07/02 12:35:20;;;;;;;7.70;3.17;;;23.60;40.30;;;;;;5075285;28;20040;-65
2023/07/02 12:37:48;;;;;;;8.25;3.15;;;23.70;40.50;;;;;;5075229;28;20047;-65
2023/07/02 12:40:14;;;;;;;8.35;3.38;;;23.70;40.30;;;;;;5057730;28;20333;-62